createdAt,value
2023-06-17T00:00:56.769Z,69.97
2023-06-17T00:03:23.561Z,69.63
2023-06-17T00:05:50.523Z,70.11
2023-06-17T00:08:17.249Z,69.49
2023-06-17T00:10:44.959Z,69.49
2023-06-17T00:13:11.926Z,69.86
2023-06-17T00:15:38.423Z,70.81
2023-06-17T00:18:06.698Z,70.25
2023-06-17T00:20:37.704Z,69.66
2023-06-17T00:23:05.304Z,70.06
2023-06-17T00:25:32.045Z,70.50
2023-06-17T00:27:58.673Z,71.02
2023-06-17T00:30:25.256Z,70.90
2023-06-17T00:32:51.957Z,70.59
2023-06-17T00:35:19.204Z,70.99
2023-06-17T00:37:45.737Z,71.16
2023-06-17T00:40:12.575Z,71.10
2023-06-17T00:42:41.276Z,70.84
2023-06-17T00:45:08.008Z,70.48
2023-06-17T00:47:35.048Z,71.20
2023-06-17T00:50:02.379Z,71.36
2023-06-17T00:52:40.528Z,71.16
2023-06-17T00:55:10.021Z,70.49
2023-06-17T00:57:36.960Z,70.25
2023-06-17T01:00:07.314Z,71.51
2023-06-17T01:02:33.944Z,71.85
2023-06-17T01:05:03.034Z,71.62
2023-06-17T01:07:54.351Z,71.18
2023-06-17T01:10:29.774Z,71.15
2023-06-17T01:12:58.514Z,70.43
2023-06-17T01:15:25.411Z,71.04
2023-06-17T01:17:56.114Z,71.27
2023-06-17T01:20:24.744Z,71.32
2023-06-17T01:23:32.751Z,71.39
2023-06-17T01:26:02.956Z,71.67
2023-06-17T01:28:30.683Z,72.30
2023-06-17T01:30:58.395Z,71.60
2023-06-17T01:33:26.105Z,71.37
2023-06-17T01:36:00.371Z,70.95
2023-06-17T01:38:43.095Z,70.89
2023-06-17T01:41:14.994Z,71.30
2023-06-17T01:43:44.092Z,71.15
2023-06-17T01:46:13.055Z,70.78
2023-06-17T01:48:40.926Z,71.09
2023-06-17T01:51:07.505Z,71.72
2023-06-17T01:53:34.227Z,72.22
2023-06-17T01:56:00.970Z,71.70
2023-06-17T01:58:27.636Z,71.12
2023-06-17T02:00:54.214Z,71.10
2023-06-17T02:03:20.938Z,71.04
2023-06-17T02:05:47.983Z,70.84
2023-06-17T02:08:16.089Z,71.01
2023-06-17T02:10:42.979Z,71.60
2023-06-17T02:13:09.836Z,71.65
2023-06-17T02:15:36.542Z,71.51
2023-06-17T02:18:03.311Z,71.94
2023-06-17T02:20:30.158Z,71.37
2023-06-17T02:22:56.861Z,71.58
2023-06-17T02:25:23.507Z,71.84
2023-06-17T02:27:50.193Z,71.48
2023-06-17T02:30:16.784Z,71.58
2023-06-17T02:32:43.404Z,71.53
2023-06-17T02:35:11.627Z,71.65
2023-06-17T02:37:38.795Z,71.82
2023-06-17T02:40:09.829Z,71.66
2023-06-17T02:42:37.611Z,71.26
2023-06-17T02:45:05.725Z,71.54
2023-06-17T02:47:32.295Z,71.52
2023-06-17T02:49:58.941Z,71.55
2023-06-17T02:52:25.974Z,71.31
2023-06-17T02:54:52.755Z,71.21
2023-06-17T02:57:19.366Z,71.34
2023-06-17T02:59:45.998Z,71.98
2023-06-17T03:02:12.618Z,71.70
2023-06-17T03:04:39.430Z,71.60
2023-06-17T03:07:07.339Z,72.03
2023-06-17T03:09:34.186Z,71.46
2023-06-17T03:12:01.731Z,71.84
2023-06-17T03:14:29.626Z,71.45
2023-06-17T03:17:00.200Z,71.84
2023-06-17T03:19:27.423Z,71.38
2023-06-17T03:21:54.255Z,71.74
2023-06-17T03:24:21.039Z,72.17
2023-06-17T03:26:47.695Z,72.02
2023-06-17T03:29:14.249Z,72.01
2023-06-17T03:31:40.921Z,71.79
2023-06-17T03:34:07.553Z,71.86
2023-06-17T03:36:35.293Z,71.97
2023-06-17T03:39:01.798Z,72.64
2023-06-17T03:41:28.314Z,71.76
2023-06-17T03:43:54.882Z,73.07
2023-06-17T03:46:21.457Z,72.69
2023-06-17T03:48:48.171Z,72.70
2023-06-17T03:51:15.202Z,72.89
2023-06-17T03:53:41.878Z,72.92
2023-06-17T03:56:08.548Z,72.79
2023-06-17T03:58:35.109Z,72.42
2023-06-17T04:01:01.722Z,72.98
2023-06-17T04:03:28.478Z,73.41
2023-06-17T04:05:55.299Z,72.92
2023-06-17T04:08:23.502Z,72.89
2023-06-17T04:10:51.122Z,72.77
2023-06-17T04:13:17.916Z,72.99
2023-06-17T04:15:46.910Z,72.98
2023-06-17T04:18:13.592Z,73.22
2023-06-17T04:20:41.302Z,73.21
2023-06-17T04:23:08.036Z,73.19
2023-06-17T04:25:37.977Z,73.09
2023-06-17T04:28:08.637Z,73.49
2023-06-17T04:30:35.378Z,73.37
2023-06-17T04:33:02.813Z,73.59
2023-06-17T04:35:29.537Z,73.67
2023-06-17T04:37:56.898Z,73.97
2023-06-17T04:40:24.919Z,73.97
2023-06-17T04:42:51.918Z,73.88
2023-06-17T04:45:18.887Z,74.26
2023-06-17T04:47:46.054Z,74.39
2023-06-17T04:50:13.923Z,74.65
2023-06-17T04:52:44.965Z,74.64
2023-06-17T04:55:15.371Z,74.09
2023-06-17T04:57:43.786Z,73.41
2023-06-17T05:00:15.294Z,72.08
2023-06-17T05:02:41.995Z,72.55
2023-06-17T05:05:09.444Z,71.20
2023-06-17T05:07:36.385Z,70.91
2023-06-17T05:10:03.620Z,70.50
2023-06-17T05:12:30.356Z,69.90
2023-06-17T05:14:56.926Z,69.42
2023-06-17T05:17:23.805Z,68.61
2023-06-17T05:19:51.030Z,67.58
2023-06-17T05:22:17.762Z,67.53
2023-06-17T05:24:44.485Z,67.33
2023-06-17T05:27:11.169Z,66.36
2023-06-17T05:29:40.159Z,66.79
2023-06-17T05:32:07.407Z,65.75
2023-06-17T05:34:34.272Z,66.00
2023-06-17T05:37:00.973Z,66.07
2023-06-17T05:39:27.799Z,65.69
2023-06-17T05:41:54.314Z,65.86
2023-06-17T05:44:21.296Z,65.77
2023-06-17T05:46:47.803Z,65.39
2023-06-17T05:49:15.974Z,65.39
2023-06-17T05:51:43.268Z,65.28
2023-06-17T05:54:09.826Z,65.21
2023-06-17T05:56:36.481Z,64.87
2023-06-17T05:59:03.235Z,64.60
2023-06-17T06:01:29.960Z,64.45
2023-06-17T06:03:57.243Z,64.22
2023-06-17T06:06:23.866Z,64.27
2023-06-17T06:08:51.340Z,64.05
2023-06-17T06:11:18.073Z,63.61
2023-06-17T06:13:44.986Z,63.30
2023-06-17T06:16:11.631Z,63.17
2023-06-17T06:18:38.205Z,62.64
2023-06-17T06:21:05.878Z,61.46
2023-06-17T06:23:32.627Z,61.44
2023-06-17T06:25:59.195Z,61.40
2023-06-17T06:28:25.973Z,61.50
2023-06-17T06:30:52.646Z,61.38
2023-06-17T06:33:19.300Z,61.65
2023-06-17T06:35:46.346Z,61.02
2023-06-17T06:38:13.203Z,61.27
2023-06-17T06:40:41.773Z,61.27
2023-06-17T06:43:08.226Z,61.48
2023-06-17T06:45:34.837Z,61.16
2023-06-17T06:48:01.563Z,60.37
2023-06-17T06:50:28.515Z,60.51
2023-06-17T06:52:55.094Z,60.16
2023-06-17T06:55:21.617Z,60.51
2023-06-17T06:57:48.183Z,59.99
2023-06-17T07:00:15.645Z,60.26
2023-06-17T07:02:42.200Z,60.82
2023-06-17T07:05:09.780Z,60.57
2023-06-17T07:07:36.436Z,60.89
2023-06-17T07:10:03.194Z,61.17
2023-06-17T07:12:29.748Z,60.62
2023-06-17T07:14:56.990Z,60.50
2023-06-17T07:17:23.538Z,60.47
2023-06-17T07:19:50.203Z,60.67
2023-06-17T07:22:17.118Z,60.69
2023-06-17T07:24:43.663Z,60.74
2023-06-17T07:27:10.219Z,60.36
2023-06-17T07:29:37.075Z,59.80
2023-06-17T07:32:03.987Z,59.35
2023-06-17T07:34:30.808Z,58.81
2023-06-17T07:36:57.333Z,58.80
2023-06-17T07:39:23.970Z,57.50
2023-06-17T07:41:50.617Z,57.85
2023-06-17T07:44:17.312Z,56.55
2023-06-17T07:46:43.915Z,54.59
2023-06-17T07:49:26.000Z,53.63
2023-06-17T07:51:53.005Z,53.47
2023-06-17T07:54:19.661Z,52.02
2023-06-17T07:56:46.370Z,52.22
2023-06-17T07:59:12.973Z,52.12
2023-06-17T08:01:40.296Z,52.98
2023-06-17T08:04:07.160Z,53.06
2023-06-17T08:06:35.118Z,53.12
2023-06-17T08:09:01.728Z,52.74
2023-06-17T08:11:28.466Z,52.36
2023-06-17T08:13:55.237Z,51.42
2023-06-17T08:16:21.948Z,50.76
2023-06-17T08:18:48.587Z,50.18
2023-06-17T08:21:15.292Z,49.30
2023-06-17T08:23:42.531Z,48.58
2023-06-17T08:26:09.101Z,48.47
2023-06-17T08:28:35.646Z,48.54
2023-06-17T08:31:02.253Z,48.42
2023-06-17T08:33:30.540Z,49.10
2023-06-17T08:35:57.367Z,48.86
2023-06-17T08:38:24.177Z,48.04
2023-06-17T08:40:51.099Z,47.09
2023-06-17T08:43:19.244Z,46.58
2023-06-17T08:45:49.545Z,45.93
2023-06-17T08:48:16.899Z,45.71
2023-06-17T08:50:46.131Z,45.12
2023-06-17T08:53:14.965Z,45.36
2023-06-17T08:55:42.202Z,45.64
2023-06-17T08:58:09.635Z,45.14
2023-06-17T09:00:37.017Z,44.22
2023-06-17T09:03:08.378Z,43.31
2023-06-17T09:05:36.463Z,41.40
2023-06-17T09:08:03.263Z,40.41
2023-06-17T09:10:30.080Z,39.16
2023-06-17T09:13:00.968Z,37.49
2023-06-17T09:15:27.701Z,37.75
2023-06-17T09:17:54.743Z,37.69
2023-06-17T09:20:21.901Z,37.97
2023-06-17T09:22:49.473Z,38.84
2023-06-17T09:25:17.278Z,39.77
2023-06-17T09:28:15.094Z,40.51
2023-06-17T09:30:46.384Z,40.62
2023-06-17T09:33:23.200Z,40.73
2023-06-17T09:36:05.012Z,39.57
2023-06-17T09:38:32.573Z,39.14
2023-06-17T09:41:00.791Z,38.84
2023-06-17T09:43:28.973Z,39.15
2023-06-17T09:46:02.642Z,38.60
2023-06-17T09:48:39.385Z,40.03
2023-06-17T09:51:10.602Z,40.75
2023-06-17T09:53:38.731Z,41.46
2023-06-17T09:56:10.378Z,41.42
2023-06-17T09:58:40.661Z,42.04
2023-06-17T10:01:09.342Z,41.02
2023-06-17T10:03:36.543Z,38.48
2023-06-17T10:06:08.686Z,36.51
2023-06-17T10:08:41.023Z,35.90
2023-06-17T10:11:09.063Z,34.21
2023-06-17T10:13:40.782Z,34.09
2023-06-17T10:16:15.144Z,33.89
2023-06-17T10:18:44.654Z,32.21
2023-06-17T10:21:13.523Z,31.56
2023-06-17T10:23:43.006Z,30.79
2023-06-17T10:26:12.790Z,31.28
2023-06-17T10:29:07.436Z,32.62
2023-06-17T10:31:41.596Z,32.08
2023-06-17T10:34:26.424Z,31.73
2023-06-17T10:36:59.821Z,30.68
2023-06-17T10:39:26.595Z,30.69
2023-06-17T10:41:57.091Z,31.81
2023-06-17T10:44:28.213Z,33.47
2023-06-17T10:46:57.168Z,34.15
2023-06-17T10:49:24.158Z,35.09
2023-06-17T10:52:03.275Z,35.75
2023-06-17T10:54:31.663Z,36.48
2023-06-17T10:57:01.164Z,37.38
2023-06-17T10:59:29.553Z,38.23
2023-06-17T11:02:09.105Z,38.04
2023-06-17T11:04:37.932Z,38.41
2023-06-17T11:07:06.118Z,38.81
2023-06-17T11:09:35.242Z,39.12
2023-06-17T11:12:05.201Z,38.76
2023-06-17T11:14:34.213Z,39.80
2023-06-17T11:17:01.328Z,39.09
2023-06-17T11:19:27.964Z,39.84
2023-06-17T11:21:58.961Z,39.85
2023-06-17T11:24:26.858Z,39.98
2023-06-17T11:26:54.116Z,40.14
2023-06-17T11:29:21.088Z,40.33
2023-06-17T11:31:48.036Z,37.03
2023-06-17T11:34:15.459Z,35.65
2023-06-17T11:36:42.568Z,33.06
2023-06-17T11:39:10.851Z,31.05
2023-06-17T11:41:37.902Z,29.51
2023-06-17T11:44:04.797Z,29.31
2023-06-17T11:46:31.418Z,29.46
2023-06-17T11:48:58.628Z,30.06
2023-06-17T11:51:25.293Z,31.05
2023-06-17T11:53:53.642Z,30.90
2023-06-17T11:56:23.337Z,31.89
2023-06-17T11:58:52.293Z,31.52
2023-06-17T12:01:25.560Z,31.65
2023-06-17T12:03:52.656Z,31.72
2023-06-17T12:06:20.701Z,32.05
2023-06-17T12:08:58.633Z,31.77
2023-06-17T12:11:27.299Z,31.75
2023-06-17T12:13:55.831Z,30.97
2023-06-17T12:16:31.789Z,29.80
2023-06-17T12:18:59.390Z,28.12
2023-06-17T12:21:26.333Z,27.32
2023-06-17T12:23:54.731Z,27.31
2023-06-17T12:26:22.533Z,26.95
2023-06-17T12:28:49.590Z,26.51
2023-06-17T12:31:16.649Z,26.58
2023-06-17T12:33:43.803Z,27.05
2023-06-17T12:36:10.883Z,26.97
2023-06-17T12:38:39.131Z,27.92
2023-06-17T12:41:05.577Z,28.22
2023-06-17T12:43:32.383Z,27.89
2023-06-17T12:46:01.225Z,27.58
2023-06-17T12:48:29.276Z,27.47
2023-06-17T12:50:56.819Z,27.82
2023-06-17T12:53:24.602Z,27.52
2023-06-17T12:55:51.996Z,26.48
2023-06-17T12:58:19.299Z,26.57
2023-06-17T13:00:46.254Z,26.29
2023-06-17T13:03:15.482Z,26.20
2023-06-17T13:05:43.748Z,27.01
2023-06-17T13:08:11.608Z,27.24
2023-06-17T13:10:39.533Z,28.96
2023-06-17T13:13:07.673Z,29.62
2023-06-17T13:15:35.243Z,29.83
2023-06-17T13:18:01.887Z,28.94
2023-06-17T13:20:28.453Z,29.20
2023-06-17T13:22:55.183Z,29.85
2023-06-17T13:25:21.818Z,31.23
2023-06-17T13:27:48.466Z,33.43
2023-06-17T13:30:15.599Z,35.57
2023-06-17T13:32:43.338Z,37.45
2023-06-17T13:35:10.127Z,35.63
2023-06-17T13:37:36.898Z,35.93
2023-06-17T13:40:06.600Z,35.58
2023-06-17T13:42:33.878Z,36.12
2023-06-17T13:45:01.323Z,37.11
2023-06-17T13:47:28.363Z,36.65
2023-06-17T13:49:55.391Z,36.49
2023-06-17T13:52:22.327Z,36.37
2023-06-17T13:54:48.995Z,34.94
2023-06-17T13:57:16.013Z,34.73
2023-06-17T13:59:43.448Z,34.37
2023-06-17T14:02:10.258Z,34.43
2023-06-17T14:04:37.074Z,34.33
2023-06-17T14:07:04.086Z,34.73
2023-06-17T14:09:31.127Z,34.64
2023-06-17T14:11:57.803Z,35.48
2023-06-17T14:14:24.526Z,35.37
2023-06-17T14:16:51.338Z,36.50
2023-06-17T14:19:18.188Z,36.15
2023-06-17T14:22:04.673Z,36.46
2023-06-17T14:24:31.290Z,36.05
2023-06-17T14:27:48.663Z,35.18
2023-06-17T14:30:15.817Z,35.49
2023-06-17T14:32:44.447Z,34.46
2023-06-17T14:35:14.157Z,34.17
2023-06-17T14:37:42.752Z,33.16
2023-06-17T14:40:10.941Z,33.00
2023-06-17T14:42:39.919Z,32.14
2023-06-17T14:45:12.313Z,31.67
2023-06-17T14:47:40.396Z,32.29
2023-06-17T14:50:09.741Z,32.35
2023-06-17T14:52:36.661Z,31.80
2023-06-17T14:55:04.549Z,32.87
2023-06-17T14:57:33.411Z,32.46
2023-06-17T15:00:01.024Z,32.50
2023-06-17T15:02:58.090Z,32.45
2023-06-17T15:05:27.867Z,32.19
2023-06-17T15:07:54.935Z,32.49
2023-06-17T15:10:22.018Z,33.33
2023-06-17T15:12:49.135Z,32.91
2023-06-17T15:15:18.603Z,32.13
2023-06-17T15:17:45.502Z,31.90
2023-06-17T15:20:12.679Z,31.79
2023-06-17T15:22:39.730Z,32.34
2023-06-17T15:25:07.093Z,32.00
2023-06-17T15:27:34.124Z,31.31
2023-06-17T15:30:02.004Z,31.39
2023-06-17T15:32:28.620Z,31.13
2023-06-17T15:34:56.231Z,30.67
2023-06-17T15:37:22.793Z,30.78
2023-06-17T15:39:49.644Z,30.76
2023-06-17T15:42:16.486Z,29.95
2023-06-17T15:44:43.429Z,30.42
2023-06-17T15:47:10.140Z,30.62
2023-06-17T15:49:37.654Z,29.81
2023-06-17T15:52:05.562Z,30.14
2023-06-17T15:54:32.203Z,30.03
2023-06-17T15:56:58.844Z,29.92
2023-06-17T15:59:27.191Z,30.20
2023-06-17T16:01:54.455Z,30.37
2023-06-17T16:04:36.687Z,29.16
2023-06-17T16:07:07.921Z,29.24
2023-06-17T16:09:38.233Z,29.72
2023-06-17T16:12:05.847Z,29.26
2023-06-17T16:14:34.039Z,28.65
2023-06-17T16:17:02.792Z,29.22
2023-06-17T16:19:32.390Z,29.23
2023-06-17T16:22:04.198Z,31.04
2023-06-17T16:24:31.888Z,32.14
2023-06-17T16:26:59.712Z,32.43
2023-06-17T16:29:26.592Z,32.32
2023-06-17T16:31:53.211Z,32.58
2023-06-17T16:34:19.860Z,32.00
2023-06-17T16:36:47.754Z,31.81
2023-06-17T16:39:14.491Z,32.17
2023-06-17T16:41:41.557Z,32.54
2023-06-17T16:44:08.353Z,32.44
2023-06-17T16:46:35.768Z,32.00
2023-06-17T16:49:02.693Z,31.92
2023-06-17T16:51:31.042Z,32.24
2023-06-17T16:53:57.984Z,32.38
2023-06-17T16:56:24.849Z,32.72
2023-06-17T16:58:51.561Z,33.17
2023-06-17T17:01:18.454Z,32.87
2023-06-17T17:03:45.470Z,33.15
2023-06-17T17:06:12.090Z,33.17
2023-06-17T17:08:38.654Z,33.47
2023-06-17T17:11:05.324Z,33.78
2023-06-17T17:13:47.248Z,34.84
2023-06-17T17:16:14.989Z,35.31
2023-06-17T17:18:41.658Z,35.58
2023-06-17T17:21:08.334Z,35.49
2023-06-17T17:23:35.136Z,36.24
2023-06-17T17:26:01.974Z,36.51
2023-06-17T17:28:29.274Z,36.15
2023-06-17T17:30:56.288Z,36.36
2023-06-17T17:33:24.101Z,36.16
2023-06-17T17:35:53.924Z,36.61
2023-06-17T17:38:20.783Z,36.91
2023-06-17T17:40:47.649Z,36.97
2023-06-17T17:43:14.272Z,37.50
2023-06-17T17:45:40.832Z,37.78
2023-06-17T17:48:07.583Z,38.32
2023-06-17T17:50:34.731Z,38.35
2023-06-17T17:53:01.463Z,38.68
2023-06-17T17:55:28.181Z,38.80
2023-06-17T17:57:54.919Z,39.17
2023-06-17T18:00:22.017Z,38.93
2023-06-17T18:02:48.884Z,39.00
2023-06-17T18:05:15.695Z,39.14
2023-06-17T18:07:42.536Z,39.55
2023-06-17T18:10:09.540Z,39.80
2023-06-17T18:12:36.517Z,40.40
2023-06-17T18:15:03.437Z,39.73
2023-06-17T18:17:30.213Z,40.15
2023-06-17T18:19:56.751Z,41.28
2023-06-17T18:22:23.571Z,42.30
2023-06-17T18:24:50.428Z,42.96
2023-06-17T18:27:30.817Z,43.12
2023-06-17T18:30:01.794Z,43.19
2023-06-17T18:32:28.424Z,43.87
2023-06-17T18:34:55.007Z,44.51
2023-06-17T18:37:21.602Z,45.49
2023-06-17T18:39:48.281Z,45.57
2023-06-17T18:42:15.087Z,46.18
2023-06-17T18:44:41.880Z,46.59
2023-06-17T18:47:08.851Z,47.07
2023-06-17T18:49:35.564Z,47.42
2023-06-17T18:52:02.432Z,46.28
2023-06-17T18:54:29.039Z,45.51
2023-06-17T18:56:56.492Z,45.21
2023-06-17T19:03:09.969Z,46.05
2023-06-17T19:05:39.596Z,46.43
2023-06-17T19:08:06.193Z,46.70
2023-06-17T19:10:32.831Z,47.28
2023-06-17T19:12:59.677Z,46.93
2023-06-17T19:15:26.418Z,47.16
2023-06-17T19:17:53.215Z,47.44
2023-06-17T19:20:20.153Z,47.71
2023-06-17T19:22:47.444Z,47.78
2023-06-17T19:25:14.213Z,48.50
2023-06-17T19:27:41.130Z,48.45
2023-06-17T19:30:08.100Z,48.45
2023-06-17T19:32:34.631Z,49.05
2023-06-17T19:35:02.074Z,49.06
2023-06-17T19:37:29.837Z,49.36
2023-06-17T19:39:56.369Z,50.34
2023-06-17T19:42:22.853Z,50.77
2023-06-17T19:44:56.996Z,51.22
2023-06-17T19:47:25.036Z,51.62
2023-06-17T19:49:52.969Z,52.21
2023-06-17T19:52:20.462Z,52.49
2023-06-17T19:54:47.129Z,53.37
2023-06-17T19:57:13.729Z,54.30
2023-06-17T19:59:40.599Z,54.75
2023-06-17T20:02:07.526Z,55.10
2023-06-17T20:04:35.074Z,55.97
2023-06-17T20:07:02.458Z,56.19
2023-06-17T20:09:29.000Z,56.59
2023-06-17T20:11:55.460Z,56.58
2023-06-17T20:14:22.008Z,56.28
2023-06-17T20:16:48.551Z,57.05
2023-06-17T20:19:15.461Z,57.21
2023-06-17T20:21:41.944Z,57.36
2023-06-17T20:24:08.541Z,58.01
2023-06-17T20:26:35.080Z,58.22
2023-06-17T20:29:01.597Z,57.65
2023-06-17T20:31:28.346Z,57.51
2023-06-17T20:33:54.865Z,57.96
2023-06-17T20:36:21.505Z,57.98
2023-06-17T20:38:48.078Z,57.71
2023-06-17T20:41:14.607Z,57.96
2023-06-17T20:43:41.156Z,58.28
2023-06-17T20:46:07.842Z,58.65
2023-06-17T20:48:34.311Z,58.91
2023-06-17T20:51:00.980Z,59.19
2023-06-17T20:53:27.485Z,59.53
2023-06-17T20:55:54.057Z,59.37
2023-06-17T20:58:20.577Z,59.79
2023-06-17T21:00:47.109Z,59.80
2023-06-17T21:03:14.098Z,59.60
2023-06-17T21:05:40.688Z,60.75
2023-06-17T21:08:07.211Z,60.96
2023-06-17T21:10:33.705Z,60.88
2023-06-17T21:13:00.545Z,60.79
2023-06-17T21:15:27.054Z,61.01
2023-06-17T21:17:53.636Z,60.85
2023-06-17T21:20:21.064Z,60.83
2023-06-17T21:22:47.740Z,60.98
2023-06-17T21:25:14.391Z,61.24
2023-06-17T21:27:40.921Z,60.90
2023-06-17T21:30:07.961Z,61.33
2023-06-17T21:32:34.531Z,61.49
2023-06-17T21:35:01.342Z,61.53
2023-06-17T21:37:27.842Z,61.45
2023-06-17T21:39:54.280Z,61.56
2023-06-17T21:42:20.816Z,61.75
2023-06-17T21:44:47.834Z,62.04
2023-06-17T21:47:14.357Z,62.40
2023-06-17T21:49:41.122Z,62.26
2023-06-17T21:52:07.697Z,62.59
2023-06-17T21:54:34.274Z,62.63
2023-06-17T21:57:00.747Z,61.79
2023-06-17T21:59:27.182Z,61.32
2023-06-17T22:01:53.743Z,61.37
2023-06-17T22:04:20.582Z,61.62
2023-06-17T22:06:47.109Z,61.98
2023-06-17T22:09:13.721Z,62.63
2023-06-17T22:11:40.865Z,63.11
2023-06-17T22:14:07.850Z,63.27
2023-06-17T22:16:35.435Z,63.69
2023-06-17T22:19:01.879Z,63.57
2023-06-17T22:21:28.342Z,64.35
2023-06-17T22:23:54.848Z,64.08
2023-06-17T22:26:21.383Z,64.70
2023-06-17T22:28:47.947Z,65.57
2023-06-17T22:31:14.595Z,65.56
2023-06-17T22:33:41.030Z,65.58
2023-06-17T22:36:07.597Z,65.82
2023-06-17T22:38:34.136Z,65.68
2023-06-17T22:41:00.712Z,66.07
2023-06-17T22:43:27.239Z,66.95
2023-06-17T22:45:53.697Z,66.44
2023-06-17T22:48:20.538Z,66.46
2023-06-17T22:50:47.311Z,66.54
2023-06-17T22:53:13.898Z,66.99
2023-06-17T22:55:40.648Z,66.46
2023-06-17T22:58:07.210Z,66.73
2023-06-17T23:00:33.809Z,66.85
2023-06-17T23:03:00.488Z,66.96
2023-06-17T23:05:27.202Z,68.23
2023-06-17T23:07:53.652Z,67.56
2023-06-17T23:10:20.331Z,68.00
2023-06-17T23:12:47.156Z,68.34
2023-06-17T23:15:13.769Z,68.29
2023-06-17T23:17:40.257Z,68.12
2023-06-17T23:20:07.582Z,68.40
2023-06-17T23:22:34.720Z,68.33
2023-06-17T23:25:06.974Z,68.53
2023-06-17T23:27:34.477Z,68.76
2023-06-17T23:30:01.021Z,68.07
2023-06-17T23:32:27.686Z,67.86
2023-06-17T23:34:54.636Z,68.55
2023-06-17T23:37:21.338Z,67.73
2023-06-17T23:39:48.315Z,66.82
2023-06-17T23:42:14.863Z,67.18
2023-06-17T23:44:41.361Z,66.92
2023-06-17T23:47:08.790Z,67.23
2023-06-17T23:49:39.179Z,67.14
2023-06-17T23:52:10.848Z,67.01
2023-06-17T23:54:38.480Z,67.17
2023-06-17T23:57:05.583Z,67.10
2023-06-17T23:59:33.250Z,67.10
